Time;durP1;ratioP1;P1;durP2;ratioP2;P2;SDS_P1;SDS_P2;PMS_P1;PMS_P2;Temp;Humidity;BMP_temperature;BMP_pressure;BME280_temperature;BME280_humidity;BME280_pressure;Samples;Min_cycle;Max_cycle;Signal;HPM_P1;HPM_P2
2024/01/26 00:00:34;;;;;;;7.67;6.20;;;;;;;;;;5076991;28;20180;-82
2024/01/26 00:03:00;;;;;;;9.82;6.05;;;;;;;;;;5077596;28;20504;-81
2024/01/26 00:05:26;;;;;;;10.20;6.47;;;;;;;;;;5077318;28;20177;-80
2024/01/26 00:07:52;;;;;;;10.13;6.30;;;;;;;;;;5077657;28;20181;-80
2024/01/26 00:10:18;;;;;;;8.83;6.50;;;;;;;;;;5077826;28;20886;-82
2024/01/26 00:12:44;;;;;;;7.40;6.27;;;;;;;;;;5076726;28;20458;-80
2024/01/26 00:15:10;;;;;;;9.75;7.07;;;;;;;;;;5076840;28;20403;-82
2024/01/26 00:17:36;;;;;;;8.37;6.57;;;;;;;;;;5059309;28;20177;-81
2024/01/26 00:20:02;;;;;;;9.27;6.45;;;;;;;;;;5077312;28;20408;-80
2024/01/26 00:22:28;;;;;;;9.60;6.78;;;;;;;;;;5077204;28;20180;-80
2024/01/26 00:24:54;;;;;;;9.23;6.53;;;;;;;;;;5044220;28;20188;-81
2024/01/26 00:27:20;;;;;;;10.80;7.27;;;;;;;;;;5062697;28;20447;-81
2024/01/26 00:29:46;;;;;;;7.40;6.40;;;;;;;;;;5073424;28;20419;-81
2024/01/26 00:32:12;;;;;;;10.23;6.63;;;;;;;;;;5056047;28;20443;-81
2024/01/26 00:34:38;;;;;;;8.17;6.70;;;;;;;;;;5056744;28;20525;-81
2024/01/26 00:37:04;;;;;;;8.60;6.38;;;;;;;;;;5056484;28;20836;-81
2024/01/26 00:39:33;;;;;;;9.33;5.90;;;;;;;;;;5055302;28;20310;-80
2024/01/26 00:41:59;;;;;;;10.13;6.40;;;;;;;;;;5055097;28;20492;-81
2024/01/26 00:44:25;;;;;;;5.13;4.63;;;;;;;;;;5056692;28;20221;-80
2024/01/26 00:46:51;;;;;;;7.65;6.03;;;;;;;;;;5038265;28;20486;-80
2024/01/26 00:49:17;;;;;;;6.50;5.60;;;;;;;;;;5038838;28;20630;-80
2024/01/26 00:51:43;;;;;;;13.13;6.85;;;;;;;;;;5038585;28;20424;-80
2024/01/26 00:54:09;;;;;;;9.18;6.90;;;;;;;;;;5056682;28;20232;-80
2024/01/26 00:56:36;;;;;;;6.90;6.13;;;;;;;;;;5068901;28;20200;-80
2024/01/26 00:59:02;;;;;;;9.27;5.93;;;;;;;;;;5076530;28;20461;-80
2024/01/26 01:01:27;;;;;;;10.17;6.30;;;;;;;;;;5076466;28;20605;-80
2024/01/26 01:03:53;;;;;;;10.97;7.30;;;;;;;;;;5076293;28;20400;-81
2024/01/26 01:06:19;;;;;;;12.47;6.43;;;;;;;;;;5076304;28;20465;-80
2024/01/26 01:08:45;;;;;;;7.60;5.93;;;;;;;;;;5075870;28;20890;-80
2024/01/26 01:11:11;;;;;;;7.13;6.38;;;;;;;;;;5058415;28;20656;-80
2024/01/26 01:13:38;;;;;;;13.88;6.85;;;;;;;;;;5075785;28;20575;-82
2024/01/26 01:16:05;;;;;;;8.82;6.75;;;;;;;;;;5058110;28;20595;-80
2024/01/26 01:18:30;;;;;;;7.75;6.50;;;;;;;;;;5076204;28;20173;-80
2024/01/26 01:20:56;;;;;;;8.63;6.50;;;;;;;;;;5075788;28;20188;-80
2024/01/26 01:23:23;;;;;;;8.97;7.07;;;;;;;;;;5075738;28;20482;-80
2024/01/26 01:25:50;;;;;;;8.73;6.40;;;;;;;;;;5075251;28;20399;-80
2024/01/26 01:28:16;;;;;;;7.97;6.32;;;;;;;;;;5075781;28;20210;-80
2024/01/26 01:30:42;;;;;;;9.65;7.00;;;;;;;;;;5075504;28;20177;-83
2024/01/26 01:33:08;;;;;;;7.35;6.00;;;;;;;;;;5076001;28;20189;-80
2024/01/26 01:35:34;;;;;;;8.55;7.15;;;;;;;;;;5075304;28;20660;-80
2024/01/26 01:38:00;;;;;;;8.57;7.17;;;;;;;;;;5074869;28;20193;-80
2024/01/26 01:40:26;;;;;;;10.47;7.97;;;;;;;;;;5057897;28;20519;-80
2024/01/26 01:42:52;;;;;;;11.05;7.13;;;;;;;;;;5040569;28;20472;-80
2024/01/26 01:45:18;;;;;;;12.47;8.37;;;;;;;;;;5075654;28;20664;-80
2024/01/26 01:47:44;;;;;;;9.90;8.40;;;;;;;;;;5074958;28;20412;-82
2024/01/26 01:50:10;;;;;;;16.67;7.53;;;;;;;;;;5075588;28;20410;-80
2024/01/26 01:52:40;;;;;;;9.98;8.35;;;;;;;;;;5074924;28;20188;-80
2024/01/26 01:55:08;;;;;;;10.82;8.00;;;;;;;;;;5057399;28;20272;-82
2024/01/26 01:57:34;;;;;;;8.55;7.60;;;;;;;;;;5075332;28;20173;-81
2024/01/26 02:00:04;;;;;;;11.20;7.90;;;;;;;;;;5074983;28;20745;-81
2024/01/26 02:02:30;;;;;;;9.70;8.13;;;;;;;;;;5075077;28;20193;-79
2024/01/26 02:04:56;;;;;;;10.10;8.10;;;;;;;;;;5074873;28;20200;-82
2024/01/26 02:07:22;;;;;;;8.07;7.20;;;;;;;;;;5075320;28;20411;-80
2024/01/26 02:09:48;;;;;;;9.83;8.33;;;;;;;;;;5057186;28;20407;-80
2024/01/26 02:12:14;;;;;;;13.85;8.02;;;;;;;;;;5075072;28;20429;-79
2024/01/26 02:14:40;;;;;;;10.98;7.40;;;;;;;;;;5075390;28;20253;-81
2024/01/26 02:17:06;;;;;;;9.68;7.53;;;;;;;;;;5075032;28;20188;-80
2024/01/26 02:19:33;;;;;;;8.15;7.10;;;;;;;;;;5075139;28;20181;-80
2024/01/26 02:21:59;;;;;;;10.52;7.57;;;;;;;;;;5075004;28;20175;-80
2024/01/26 02:24:25;;;;;;;10.20;7.23;;;;;;;;;;5075152;28;20185;-80
2024/01/26 02:26:52;;;;;;;8.70;7.80;;;;;;;;;;5075029;28;20944;-82
2024/01/26 02:29:18;;;;;;;8.50;7.13;;;;;;;;;;5075161;28;20664;-82
2024/01/26 02:31:44;;;;;;;9.80;7.55;;;;;;;;;;5074899;28;20181;-82
2024/01/26 02:34:12;;;;;;;8.70;7.43;;;;;;;;;;5075184;28;20748;-81
2024/01/26 02:36:39;;;;;;;9.75;7.05;;;;;;;;;;5074964;28;20423;-81
2024/01/26 02:39:05;;;;;;;8.90;6.43;;;;;;;;;;5056451;28;20327;-81
2024/01/26 02:41:32;;;;;;;10.40;8.05;;;;;;;;;;5075097;28;20181;-81
2024/01/26 02:43:58;;;;;;;7.78;6.97;;;;;;;;;;5061395;28;20234;-81
2024/01/26 02:46:24;;;;;;;9.27;7.53;;;;;;;;;;5074738;28;20184;-81
2024/01/26 02:48:50;;;;;;;7.43;6.50;;;;;;;;;;5074779;28;20249;-81
2024/01/26 02:51:16;;;;;;;10.25;7.68;;;;;;;;;;5074684;28;20188;-82
2024/01/26 02:53:42;;;;;;;6.97;6.37;;;;;;;;;;5074779;28;20208;-81
2024/01/26 02:56:08;;;;;;;8.57;7.60;;;;;;;;;;5074486;28;20412;-81
2024/01/26 02:58:35;;;;;;;8.85;6.65;;;;;;;;;;5074763;28;20418;-81
2024/01/26 03:01:04;;;;;;;8.25;7.28;;;;;;;;;;5074168;28;20169;-81
2024/01/26 03:03:30;;;;;;;10.27;6.65;;;;;;;;;;5074971;28;20176;-81
2024/01/26 03:05:56;;;;;;;8.48;7.30;;;;;;;;;;5058776;28;20188;-81
2024/01/26 03:08:22;;;;;;;7.97;6.45;;;;;;;;;;5078563;28;20518;-81
2024/01/26 03:10:50;;;;;;;11.35;6.97;;;;;;;;;;5078955;28;20180;-81
2024/01/26 03:13:17;;;;;;;8.77;5.60;;;;;;;;;;5078850;28;20244;-81
2024/01/26 03:15:49;;;;;;;6.00;5.40;;;;;;;;;;5060713;28;20254;-81
2024/01/26 03:18:15;;;;;;;7.13;4.75;;;;;;;;;;5078138;28;20240;-80
2024/01/26 03:20:41;;;;;;;5.67;4.80;;;;;;;;;;5078354;28;20333;-82
2024/01/26 03:23:07;;;;;;;5.65;3.53;;;;;;;;;;5077665;28;20505;-81
2024/01/26 03:25:33;;;;;;;3.90;3.50;;;;;;;;;;5077870;28;20656;-81
2024/01/26 03:27:59;;;;;;;3.60;3.25;;;;;;;;;;5077718;28;20447;-81
2024/01/26 03:30:25;;;;;;;3.78;3.40;;;;;;;;;;5060205;28;20365;-81
2024/01/26 03:32:51;;;;;;;4.13;3.78;;;;;;;;;;5078231;28;20283;-81
2024/01/26 03:35:18;;;;;;;4.20;3.80;;;;;;;;;;5078533;28;20216;-80
2024/01/26 03:37:44;;;;;;;6.43;3.50;;;;;;;;;;5077880;28;20415;-81
2024/01/26 03:40:10;;;;;;;3.43;3.13;;;;;;;;;;5060065;28;20228;-81
2024/01/26 03:42:37;;;;;;;4.13;3.67;;;;;;;;;;5078146;28;20448;-82
2024/01/26 03:45:03;;;;;;;4.18;3.25;;;;;;;;;;5076726;28;20271;-81
2024/01/26 03:47:29;;;;;;;3.38;2.55;;;;;;;;;;5077151;28;20169;-81
2024/01/26 03:49:55;;;;;;;3.40;3.03;;;;;;;;;;5076905;28;20177;-81
2024/01/26 03:52:22;;;;;;;3.97;3.23;;;;;;;;;;5059856;28;20411;-81
2024/01/26 03:54:48;;;;;;;3.08;2.70;;;;;;;;;;5060411;28;20415;-82
2024/01/26 03:57:14;;;;;;;4.20;3.00;;;;;;;;;;5077569;28;20203;-81
2024/01/26 03:59:40;;;;;;;2.92;2.65;;;;;;;;;;5060153;28;20407;-80
2024/01/26 04:02:06;;;;;;;5.13;3.07;;;;;;;;;;5077461;28;20169;-81
2024/01/26 04:04:31;;;;;;;4.30;3.20;;;;;;;;;;5077345;28;20427;-80
2024/01/26 04:06:57;;;;;;;3.90;3.50;;;;;;;;;;5077240;28;20396;-81
2024/01/26 04:09:23;;;;;;;4.20;3.67;;;;;;;;;;5077377;28;20411;-81
2024/01/26 04:11:49;;;;;;;3.33;2.93;;;;;;;;;;5077026;28;20399;-81
2024/01/26 04:14:16;;;;;;;5.05;3.03;;;;;;;;;;5067915;28;20464;-81
2024/01/26 04:16:41;;;;;;;5.18;3.20;;;;;;;;;;5057250;28;20193;-80
2024/01/26 04:19:07;;;;;;;5.00;3.90;;;;;;;;;;5058007;28;20181;-81
2024/01/26 04:21:33;;;;;;;5.80;2.90;;;;;;;;;;5057263;28;20400;-81
2024/01/26 04:23:59;;;;;;;4.70;3.50;;;;;;;;;;5056976;28;20413;-81
2024/01/26 04:26:26;;;;;;;3.00;2.67;;;;;;;;;;5057031;28;20892;-81
2024/01/26 04:28:52;;;;;;;8.93;4.00;;;;;;;;;;5056952;28;20451;-81
2024/01/26 04:31:18;;;;;;;5.63;3.90;;;;;;;;;;5057657;28;20182;-81
2024/01/26 04:33:47;;;;;;;2.90;2.60;;;;;;;;;;5057229;28;20517;-81
2024/01/26 04:36:13;;;;;;;3.80;3.40;;;;;;;;;;5057389;28;20170;-81
2024/01/26 04:38:40;;;;;;;4.50;3.25;;;;;;;;;;5056782;28;20260;-80
2024/01/26 04:41:06;;;;;;;2.85;2.47;;;;;;;;;;5066226;28;20683;-81
2024/01/26 04:43:32;;;;;;;4.53;3.00;;;;;;;;;;5076765;28;20188;-81
2024/01/26 04:45:58;;;;;;;3.45;2.75;;;;;;;;;;5058495;28;20415;-81
2024/01/26 04:48:24;;;;;;;3.90;2.50;;;;;;;;;;5077086;28;20176;-80
2024/01/26 04:50:50;;;;;;;2.67;2.47;;;;;;;;;;5076823;28;20184;-81
2024/01/26 04:53:16;;;;;;;3.28;2.40;;;;;;;;;;5076716;28;20303;-81
2024/01/26 04:55:42;;;;;;;2.70;2.50;;;;;;;;;;5076717;28;20540;-80
2024/01/26 04:58:08;;;;;;;5.50;2.70;;;;;;;;;;5076292;28;20601;-80
2024/01/26 05:00:34;;;;;;;3.30;2.30;;;;;;;;;;5076388;28;20179;-81
2024/01/26 05:03:00;;;;;;;3.60;2.20;;;;;;;;;;5076521;28;20188;-82
2024/01/26 05:05:27;;;;;;;3.63;2.63;;;;;;;;;;5076168;28;20430;-80
2024/01/26 05:07:53;;;;;;;2.63;1.65;;;;;;;;;;5075953;28;20177;-80
2024/01/26 05:10:19;;;;;;;4.05;2.30;;;;;;;;;;5076420;28;20169;-80
2024/01/26 05:12:45;;;;;;;3.10;2.25;;;;;;;;;;5076168;28;20264;-80
2024/01/26 05:15:11;;;;;;;2.87;1.93;;;;;;;;;;5075725;28;20672;-81
2024/01/26 05:17:38;;;;;;;3.20;1.70;;;;;;;;;;5058619;28;20435;-81
2024/01/26 05:20:04;;;;;;;1.65;1.45;;;;;;;;;;5075669;28;20192;-81
2024/01/26 05:22:30;;;;;;;4.47;1.80;;;;;;;;;;5076201;28;20238;-80
2024/01/26 05:24:56;;;;;;;4.40;2.55;;;;;;;;;;5064010;28;20684;-80
2024/01/26 05:27:22;;;;;;;5.32;2.50;;;;;;;;;;5055528;28;20277;-81
2024/01/26 05:29:48;;;;;;;8.90;3.83;;;;;;;;;;5055394;28;20192;-80
2024/01/26 05:32:15;;;;;;;5.07;2.65;;;;;;;;;;5055489;28;20486;-81
2024/01/26 05:34:41;;;;;;;4.72;3.45;;;;;;;;;;5038148;28;20221;-80
2024/01/26 05:37:07;;;;;;;2.55;2.25;;;;;;;;;;5055335;28;20177;-80
2024/01/26 05:39:33;;;;;;;3.20;1.47;;;;;;;;;;5055569;28;20596;-80
2024/01/26 05:41:59;;;;;;;1.40;1.20;;;;;;;;;;5055689;28;20411;-80
2024/01/26 05:44:25;;;;;;;1.73;1.50;;;;;;;;;;5055785;28;20911;-79
2024/01/26 05:46:51;;;;;;;1.60;1.33;;;;;;;;;;5055898;28;20170;-81
2024/01/26 05:49:17;;;;;;;1.57;1.30;;;;;;;;;;5056679;28;20501;-81
2024/01/26 05:51:43;;;;;;;1.45;1.35;;;;;;;;;;5048457;28;20955;-80
2024/01/26 05:54:09;;;;;;;1.58;1.42;;;;;;;;;;5055731;28;20216;-80
2024/01/26 05:56:39;;;;;;;2.00;1.40;;;;;;;;;;5055953;28;20296;-80
2024/01/26 05:59:05;;;;;;;1.52;1.20;;;;;;;;;;5055915;28;20423;-80
2024/01/26 06:01:31;;;;;;;1.90;1.13;;;;;;;;;;5055434;28;20186;-80
2024/01/26 06:03:57;;;;;;;1.77;1.33;;;;;;;;;;5055528;28;20589;-80
2024/01/26 06:06:23;;;;;;;1.67;1.43;;;;;;;;;;5055916;28;20404;-80
2024/01/26 06:08:49;;;;;;;1.53;1.20;;;;;;;;;;5064613;28;20533;-79
2024/01/26 06:11:17;;;;;;;2.03;1.40;;;;;;;;;;5075168;28;20418;-80
2024/01/26 06:13:43;;;;;;;2.00;1.30;;;;;;;;;;5075139;28;20466;-80
2024/01/26 06:16:12;;;;;;;2.03;1.40;;;;;;;;;;5074948;28;20185;-80
2024/01/26 06:18:38;;;;;;;1.90;1.30;;;;;;;;;;5074984;28;20414;-80
2024/01/26 06:21:04;;;;;;;1.70;1.37;;;;;;;;;;5075166;28;20255;-80
2024/01/26 06:23:30;;;;;;;2.13;1.77;;;;;;;;;;5057934;28;20414;-80
2024/01/26 06:25:56;;;;;;;2.10;1.48;;;;;;;;;;5075391;28;20717;-81
2024/01/26 06:28:22;;;;;;;2.00;1.50;;;;;;;;;;5061246;28;20534;-80
2024/01/26 06:30:49;;;;;;;3.45;1.30;;;;;;;;;;5055057;28;20185;-80
2024/01/26 06:33:15;;;;;;;2.15;1.70;;;;;;;;;;5054368;28;20205;-80
2024/01/26 06:35:41;;;;;;;2.22;1.70;;;;;;;;;;5036972;28;20193;-80
2024/01/26 06:38:07;;;;;;;1.80;1.55;;;;;;;;;;5055013;28;20227;-80
2024/01/26 06:40:33;;;;;;;1.92;1.67;;;;;;;;;;5055274;28;20224;-80
2024/01/26 06:43:05;;;;;;;3.77;1.70;;;;;;;;;;5036890;28;20189;-81
2024/01/26 06:45:31;;;;;;;2.95;1.73;;;;;;;;;;5055051;28;20557;-80
2024/01/26 06:47:57;;;;;;;2.78;1.67;;;;;;;;;;5055194;28;20239;-80
2024/01/26 06:50:23;;;;;;;2.80;1.77;;;;;;;;;;5066242;28;20184;-80
2024/01/26 06:52:49;;;;;;;1.97;1.63;;;;;;;;;;5075045;28;20573;-80
2024/01/26 06:55:15;;;;;;;2.93;1.80;;;;;;;;;;5074844;28;20415;-80
2024/01/26 06:57:41;;;;;;;2.95;1.85;;;;;;;;;;5075078;28;20423;-80
2024/01/26 07:00:09;;;;;;;2.33;1.70;;;;;;;;;;5074920;28;20181;-81
2024/01/26 07:02:35;;;;;;;2.83;2.05;;;;;;;;;;5075664;28;20433;-80
2024/01/26 07:05:00;;;;;;;2.70;2.17;;;;;;;;;;5074642;28;20177;-81
2024/01/26 07:07:26;;;;;;;4.00;2.20;;;;;;;;;;5074833;28;20417;-81
2024/01/26 07:09:53;;;;;;;3.40;2.20;;;;;;;;;;5075233;28;20451;-81
2024/01/26 07:12:19;;;;;;;4.20;2.67;;;;;;;;;;5056433;28;20502;-81
2024/01/26 07:14:45;;;;;;;2.95;2.35;;;;;;;;;;5074331;28;20208;-81
2024/01/26 07:17:11;;;;;;;4.27;2.63;;;;;;;;;;5074198;28;20264;-82
2024/01/26 07:19:37;;;;;;;3.25;2.95;;;;;;;;;;5074524;28;20399;-82
2024/01/26 07:22:05;;;;;;;3.60;2.92;;;;;;;;;;5073896;28;20176;-82
2024/01/26 07:24:30;;;;;;;5.00;2.92;;;;;;;;;;5074465;28;20668;-83
2024/01/26 07:26:56;;;;;;;3.77;3.00;;;;;;;;;;5074599;28;20185;-83
2024/01/26 07:29:22;;;;;;;4.60;3.30;;;;;;;;;;5074092;28;20403;-83
2024/01/26 07:31:49;;;;;;;6.50;3.90;;;;;;;;;;5073982;28;20774;-83
2024/01/26 07:34:15;;;;;;;7.05;4.65;;;;;;;;;;5073849;28;20288;-84
2024/01/26 07:36:42;;;;;;;5.13;3.50;;;;;;;;;;5073835;28;20173;-83
2024/01/26 07:39:09;;;;;;;5.72;3.95;;;;;;;;;;5073915;28;20668;-83
2024/01/26 07:41:35;;;;;;;3.92;3.10;;;;;;;;;;5056090;28;20184;-83
2024/01/26 07:44:01;;;;;;;6.25;4.13;;;;;;;;;;5073991;28;20250;-84
2024/01/26 07:46:27;;;;;;;7.05;3.95;;;;;;;;;;5073905;28;20181;-82
2024/01/26 07:48:53;;;;;;;4.15;3.20;;;;;;;;;;5074103;28;20192;-82
2024/01/26 07:51:19;;;;;;;7.07;3.60;;;;;;;;;;5074435;28;20173;-85
2024/01/26 07:53:45;;;;;;;6.20;3.70;;;;;;;;;;5076973;28;20455;-84
2024/01/26 07:56:11;;;;;;;4.93;3.07;;;;;;;;;;5077740;28;20406;-84
2024/01/26 07:58:38;;;;;;;7.57;3.70;;;;;;;;;;5077569;28;20922;-84
2024/01/26 08:01:05;;;;;;;5.20;3.35;;;;;;;;;;5077195;28;20399;-82
2024/01/26 08:03:31;;;;;;;7.75;3.63;;;;;;;;;;5077382;28;20191;-82
2024/01/26 08:05:57;;;;;;;5.82;3.70;;;;;;;;;;5058875;28;20173;-82
2024/01/26 08:08:23;;;;;;;5.80;3.37;;;;;;;;;;5076615;28;20181;-86
2024/01/26 08:10:49;;;;;;;4.57;3.20;;;;;;;;;;5077108;28;20402;-85
2024/01/26 08:13:15;;;;;;;4.97;3.20;;;;;;;;;;5076868;28;20813;-85
2024/01/26 08:15:41;;;;;;;5.05;3.70;;;;;;;;;;5076396;28;20509;-85
2024/01/26 08:18:07;;;;;;;9.10;4.23;;;;;;;;;;5058665;28;20219;-86
2024/01/26 08:20:33;;;;;;;4.73;3.30;;;;;;;;;;5076422;28;20735;-85
2024/01/26 08:22:59;;;;;;;4.53;3.40;;;;;;;;;;5076343;28;20403;-84
2024/01/26 08:25:25;;;;;;;7.07;3.50;;;;;;;;;;5077100;28;20451;-85
2024/01/26 08:27:53;;;;;;;10.55;4.10;;;;;;;;;;5076870;28;20412;-85
2024/01/26 08:30:22;;;;;;;4.28;3.40;;;;;;;;;;5076598;28;20183;-86
2024/01/26 08:32:48;;;;;;;3.78;2.67;;;;;;;;;;5076580;28;20176;-85
2024/01/26 08:35:14;;;;;;;3.72;3.05;;;;;;;;;;5076377;28;20184;-86
2024/01/26 08:37:40;;;;;;;7.20;3.00;;;;;;;;;;5076279;28;20177;-83
2024/01/26 08:40:06;;;;;;;3.67;2.50;;;;;;;;;;5076081;28;20640;-84
2024/01/26 08:42:34;;;;;;;3.33;2.70;;;;;;;;;;5076387;28;20408;-85
2024/01/26 08:45:00;;;;;;;4.70;3.10;;;;;;;;;;5075996;28;20191;-83
2024/01/26 08:47:26;;;;;;;4.50;2.10;;;;;;;;;;5075925;28;20629;-84
2024/01/26 08:49:52;;;;;;;2.07;1.87;;;;;;;;;;5069700;28;20420;-83
2024/01/26 08:52:18;;;;;;;3.77;1.50;;;;;;;;;;5055889;28;20415;-84
2024/01/26 08:54:43;;;;;;;1.90;1.10;;;;;;;;;;5056095;28;20467;-84
2024/01/26 08:57:10;;;;;;;1.50;1.30;;;;;;;;;;5038355;28;20182;-85
2024/01/26 08:59:36;;;;;;;2.55;1.20;;;;;;;;;;5055966;28;20814;-85
2024/01/26 09:02:03;;;;;;;1.90;0.77;;;;;;;;;;5055292;28;20177;-84
2024/01/26 09:04:29;;;;;;;1.38;0.73;;;;;;;;;;5054720;28;20525;-84
2024/01/26 09:06:55;;;;;;;1.08;0.80;;;;;;;;;;5038032;28;20190;-84
2024/01/26 09:09:22;;;;;;;1.63;1.13;;;;;;;;;;5056695;28;20227;-84
2024/01/26 09:11:48;;;;;;;2.25;0.80;;;;;;;;;;5057877;28;20412;-85
2024/01/26 09:14:14;;;;;;;1.10;0.80;;;;;;;;;;5055356;28;20201;-85
2024/01/26 09:16:40;;;;;;;1.02;0.80;;;;;;;;;;5055078;28;20420;-84
2024/01/26 09:19:08;;;;;;;1.20;1.00;;;;;;;;;;5055633;28;20192;-84
2024/01/26 09:21:34;;;;;;;1.40;1.20;;;;;;;;;;5055687;28;20466;-84
2024/01/26 09:24:00;;;;;;;1.50;0.90;;;;;;;;;;5056072;28;20700;-84
2024/01/26 09:26:28;;;;;;;1.75;1.10;;;;;;;;;;5054978;28;20762;-84
2024/01/26 09:28:54;;;;;;;1.92;1.02;;;;;;;;;;5055228;28;20654;-85
2024/01/26 09:31:20;;;;;;;1.63;0.90;;;;;;;;;;5057351;28;20231;-84
2024/01/26 09:33:46;;;;;;;2.10;1.25;;;;;;;;;;5065739;28;20508;-82
2024/01/26 09:36:11;;;;;;;1.15;0.90;;;;;;;;;;5075652;28;20272;-83
2024/01/26 09:38:37;;;;;;;1.03;0.90;;;;;;;;;;5075181;28;20283;-83
2024/01/26 09:41:04;;;;;;;1.63;1.10;;;;;;;;;;5075549;28;20403;-83
2024/01/26 09:43:30;;;;;;;2.65;1.40;;;;;;;;;;5074707;28;20411;-83
2024/01/26 09:45:56;;;;;;;1.60;1.30;;;;;;;;;;5073354;28;20193;-83
2024/01/26 09:48:22;;;;;;;1.50;0.90;;;;;;;;;;5074828;28;20180;-83
2024/01/26 09:50:51;;;;;;;2.60;1.10;;;;;;;;;;5074798;28;20203;-83
2024/01/26 09:53:18;;;;;;;2.70;1.00;;;;;;;;;;5074465;28;20212;-82
2024/01/26 09:55:47;;;;;;;1.30;1.00;;;;;;;;;;5075178;28;20189;-82
2024/01/26 09:58:14;;;;;;;1.75;1.48;;;;;;;;;;5074449;28;20216;-82
2024/01/26 10:00:40;;;;;;;1.42;1.05;;;;;;;;;;5074823;28;20533;-82
2024/01/26 10:03:06;;;;;;;3.60;1.50;;;;;;;;;;5085338;28;20189;-82
2024/01/26 10:05:32;;;;;;;3.87;1.60;;;;;;;;;;5057394;28;20186;-82
2024/01/26 10:07:58;;;;;;;1.23;1.00;;;;;;;;;;5060677;28;20798;-81
2024/01/26 10:10:24;;;;;;;1.90;1.33;;;;;;;;;;5037135;28;20289;-82
2024/01/26 10:12:51;;;;;;;2.75;1.30;;;;;;;;;;5054831;28;20409;-83
2024/01/26 10:15:17;;;;;;;2.25;1.40;;;;;;;;;;5054019;28;20185;-82
2024/01/26 10:17:43;;;;;;;1.40;1.30;;;;;;;;;;5054430;28;20630;-82
2024/01/26 10:20:14;;;;;;;1.60;1.23;;;;;;;;;;5054827;28;20430;-82
2024/01/26 10:22:41;;;;;;;2.03;1.35;;;;;;;;;;5054961;28;20618;-83
2024/01/26 10:25:07;;;;;;;2.33;1.50;;;;;;;;;;5038385;28;20177;-82
2024/01/26 10:27:34;;;;;;;2.63;1.77;;;;;;;;;;5070107;28;20259;-83
2024/01/26 10:30:00;;;;;;;2.45;1.90;;;;;;;;;;5074727;28;20594;-82
2024/01/26 10:32:27;;;;;;;3.65;1.92;;;;;;;;;;5068765;28;20184;-83
2024/01/26 10:34:55;;;;;;;5.22;1.90;;;;;;;;;;5057670;28;20209;-82
2024/01/26 10:37:22;;;;;;;3.33;1.70;;;;;;;;;;5055069;28;20192;-82
2024/01/26 10:39:48;;;;;;;6.40;2.05;;;;;;;;;;5074075;28;20623;-82
2024/01/26 10:42:15;;;;;;;2.63;1.60;;;;;;;;;;5074159;28;20169;-82
2024/01/26 10:44:42;;;;;;;3.45;1.80;;;;;;;;;;5074261;28;20193;-81
2024/01/26 10:47:08;;;;;;;1.90;1.50;;;;;;;;;;5074621;28;20168;-81
2024/01/26 10:49:35;;;;;;;3.08;1.65;;;;;;;;;;5074455;28;20644;-82
2024/01/26 10:52:02;;;;;;;2.85;2.05;;;;;;;;;;5074288;28;20181;-82
2024/01/26 10:54:28;;;;;;;3.17;2.00;;;;;;;;;;5074351;28;20204;-82
2024/01/26 10:56:54;;;;;;;1.80;1.60;;;;;;;;;;5098695;28;20184;-81
2024/01/26 10:59:20;;;;;;;2.23;1.80;;;;;;;;;;5098067;28;20236;-82
2024/01/26 11:01:46;;;;;;;17.58;7.55;;;;;;;;;;5095851;28;20453;-82
2024/01/26 11:04:13;;;;;;;2.38;1.95;;;;;;;;;;5095501;28;20259;-81
2024/01/26 11:06:42;;;;;;;3.55;1.90;;;;;;;;;;5063679;28;20540;-81
2024/01/26 11:09:11;;;;;;;5.32;1.45;;;;;;;;;;5075195;28;20189;-82
2024/01/26 11:11:38;;;;;;;2.05;1.30;;;;;;;;;;5074160;28;20201;-82
2024/01/26 11:14:08;;;;;;;3.85;1.48;;;;;;;;;;5074809;28;20212;-81
2024/01/26 11:16:40;;;;;;;2.92;1.75;;;;;;;;;;5075195;28;20651;-81
2024/01/26 11:19:06;;;;;;;1.75;1.35;;;;;;;;;;5075030;28;20552;-81
2024/01/26 11:21:37;;;;;;;4.63;1.55;;;;;;;;;;5073571;28;20223;-82
2024/01/26 11:24:11;;;;;;;3.92;1.52;;;;;;;;;;5074722;28;20544;-82
2024/01/26 11:26:37;;;;;;;3.90;1.90;;;;;;;;;;5076695;28;20660;-81
2024/01/26 11:29:13;;;;;;;7.23;1.97;;;;;;;;;;5078932;28;20189;-82
2024/01/26 11:31:44;;;;;;;3.40;1.80;;;;;;;;;;5060764;28;20419;-81
2024/01/26 11:34:20;;;;;;;7.25;1.67;;;;;;;;;;5079928;28;20733;-82
2024/01/26 11:36:46;;;;;;;3.75;1.65;;;;;;;;;;5079174;28;20176;-82
2024/01/26 11:39:14;;;;;;;5.78;2.08;;;;;;;;;;5078698;28;20236;-82
2024/01/26 11:41:47;;;;;;;5.28;1.70;;;;;;;;;;5078020;28;20169;-82
2024/01/26 11:44:22;;;;;;;4.05;1.50;;;;;;;;;;5077628;28;20218;-83
2024/01/26 11:46:48;;;;;;;7.28;2.30;;;;;;;;;;5060008;28;20583;-83
2024/01/26 11:49:14;;;;;;;2.80;1.30;;;;;;;;;;5078568;28;20344;-83
2024/01/26 11:51:40;;;;;;;5.57;1.75;;;;;;;;;;5082202;28;20671;-82
2024/01/26 11:54:07;;;;;;;3.72;1.35;;;;;;;;;;5062322;28;20204;-83
2024/01/26 11:56:33;;;;;;;7.75;1.70;;;;;;;;;;5059049;28;20189;-82
2024/01/26 11:58:59;;;;;;;7.20;1.60;;;;;;;;;;5058838;28;20181;-81
2024/01/26 12:01:25;;;;;;;6.00;2.10;;;;;;;;;;5059725;28;20181;-82
2024/01/26 12:03:51;;;;;;;5.67;1.20;;;;;;;;;;5058351;28;20641;-81
2024/01/26 12:06:18;;;;;;;5.93;1.40;;;;;;;;;;5057699;28;20396;-81
2024/01/26 12:08:44;;;;;;;5.78;1.45;;;;;;;;;;5058441;28;20220;-79
2024/01/26 12:11:13;;;;;;;3.83;1.25;;;;;;;;;;5058251;28;20232;-79
2024/01/26 12:13:39;;;;;;;3.05;1.17;;;;;;;;;;5061660;28;20197;-81
2024/01/26 12:16:06;;;;;;;8.02;1.38;;;;;;;;;;5078360;28;20192;-80
2024/01/26 12:18:32;;;;;;;6.47;1.70;;;;;;;;;;5077504;28;20180;-80
2024/01/26 12:20:58;;;;;;;8.20;2.15;;;;;;;;;;5077908;28;20169;-80
2024/01/26 12:23:25;;;;;;;4.57;1.25;;;;;;;;;;5077329;28;20184;-80
2024/01/26 12:25:51;;;;;;;5.15;1.83;;;;;;;;;;5077951;28;20542;-79
2024/01/26 12:28:17;;;;;;;4.20;1.10;;;;;;;;;;5077911;28;20165;-80
2024/01/26 12:30:46;;;;;;;4.88;1.20;;;;;;;;;;5069797;28;20408;-82
2024/01/26 12:33:13;;;;;;;2.75;1.10;;;;;;;;;;5057449;28;20208;-79
2024/01/26 12:35:42;;;;;;;1.13;0.80;;;;;;;;;;5057302;28;20672;-80
2024/01/26 12:38:08;;;;;;;2.15;1.00;;;;;;;;;;5057048;28;20631;-80
2024/01/26 12:40:34;;;;;;;4.70;0.90;;;;;;;;;;5057228;28;20236;-79
2024/01/26 12:43:03;;;;;;;2.73;1.47;;;;;;;;;;5056131;28;20283;-79
2024/01/26 12:45:29;;;;;;;3.78;1.02;;;;;;;;;;5067132;28;20526;-79
2024/01/26 12:47:58;;;;;;;4.03;1.00;;;;;;;;;;5072021;28;20196;-79
2024/01/26 12:50:24;;;;;;;4.25;1.00;;;;;;;;;;5058570;28;20174;-78
2024/01/26 12:52:50;;;;;;;4.55;1.50;;;;;;;;;;5044907;28;20173;-79
2024/01/26 12:55:17;;;;;;;7.47;1.50;;;;;;;;;;5057204;28;20268;-79
2024/01/26 12:57:44;;;;;;;6.32;1.10;;;;;;;;;;5056855;28;20596;-80
2024/01/26 13:00:10;;;;;;;6.15;1.38;;;;;;;;;;5057446;28;20173;-80
2024/01/26 13:02:36;;;;;;;11.43;1.60;;;;;;;;;;5076505;28;20189;-80
2024/01/26 13:05:02;;;;;;;3.95;1.20;;;;;;;;;;5076230;28;20177;-81
2024/01/26 13:07:30;;;;;;;10.20;1.55;;;;;;;;;;5058307;28;20241;-81
2024/01/26 13:09:57;;;;;;;6.53;1.50;;;;;;;;;;5076702;28;20664;-81
2024/01/26 13:12:23;;;;;;;5.30;1.15;;;;;;;;;;5075978;28;20510;-81
2024/01/26 13:14:49;;;;;;;2.50;1.17;;;;;;;;;;5078127;28;20255;-80
2024/01/26 13:17:15;;;;;;;4.47;1.25;;;;;;;;;;5091664;28;20481;-79
2024/01/26 13:19:41;;;;;;;1.88;1.10;;;;;;;;;;5076394;28;20231;-79
2024/01/26 13:22:07;;;;;;;6.70;1.50;;;;;;;;;;5076458;28;20193;-80
2024/01/26 13:24:35;;;;;;;4.73;1.33;;;;;;;;;;5075757;28;20435;-80
2024/01/26 13:27:01;;;;;;;3.35;1.20;;;;;;;;;;5058927;28;20964;-79
2024/01/26 13:29:27;;;;;;;5.00;1.45;;;;;;;;;;5076089;28;20314;-79
2024/01/26 13:31:53;;;;;;;3.87;1.77;;;;;;;;;;5076674;28;20227;-79
2024/01/26 13:34:19;;;;;;;1.37;0.80;;;;;;;;;;5071882;28;20472;-79
2024/01/26 13:36:45;;;;;;;7.93;1.60;;;;;;;;;;5056840;28;20924;-79
2024/01/26 13:39:13;;;;;;;3.70;1.13;;;;;;;;;;5067465;28;20536;-80
2024/01/26 13:41:40;;;;;;;3.63;1.20;;;;;;;;;;5076319;28;20411;-79
2024/01/26 13:44:07;;;;;;;5.05;1.42;;;;;;;;;;5076811;28;20190;-78
2024/01/26 13:46:33;;;;;;;5.68;1.55;;;;;;;;;;5074829;28;20178;-79
2024/01/26 13:48:59;;;;;;;9.60;1.27;;;;;;;;;;5076095;28;20199;-79
2024/01/26 13:51:25;;;;;;;4.43;1.23;;;;;;;;;;5076771;28;20411;-79
2024/01/26 13:53:51;;;;;;;2.83;1.40;;;;;;;;;;5076736;28;20525;-79
2024/01/26 13:56:18;;;;;;;5.30;1.17;;;;;;;;;;5076633;28;20418;-78
2024/01/26 13:58:44;;;;;;;7.47;1.20;;;;;;;;;;5076077;28;20429;-79
2024/01/26 14:01:10;;;;;;;7.05;1.60;;;;;;;;;;5076911;28;20306;-79
2024/01/26 14:03:38;;;;;;;9.23;1.60;;;;;;;;;;5076439;28;20191;-78
2024/01/26 14:06:06;;;;;;;7.18;1.30;;;;;;;;;;5076055;28;20415;-80
2024/01/26 14:08:32;;;;;;;5.28;1.48;;;;;;;;;;5075421;28;20543;-80
2024/01/26 14:10:58;;;;;;;5.90;1.55;;;;;;;;;;5076229;28;20185;-80
2024/01/26 14:13:24;;;;;;;1.33;1.15;;;;;;;;;;5076248;28;20200;-79
2024/01/26 14:15:50;;;;;;;4.97;1.25;;;;;;;;;;5076473;28;20621;-79
2024/01/26 14:18:16;;;;;;;14.80;2.97;;;;;;;;;;5076448;28;20181;-79
2024/01/26 14:20:42;;;;;;;5.78;1.48;;;;;;;;;;5076334;28;20392;-80
2024/01/26 14:23:08;;;;;;;4.97;1.42;;;;;;;;;;5075308;28;20667;-79
2024/01/26 14:25:34;;;;;;;4.53;1.30;;;;;;;;;;5075829;28;20169;-80
2024/01/26 14:28:03;;;;;;;3.88;1.42;;;;;;;;;;5058883;28;20934;-79
2024/01/26 14:30:29;;;;;;;3.70;1.45;;;;;;;;;;5057367;28;20234;-80
2024/01/26 14:32:55;;;;;;;7.47;1.90;;;;;;;;;;5075309;28;20197;-81
2024/01/26 14:35:21;;;;;;;7.40;1.53;;;;;;;;;;5075376;28;20177;-80
2024/01/26 14:37:47;;;;;;;3.97;1.10;;;;;;;;;;5074921;28;20423;-80